Time;durP1;ratioP1;P1;durP2;ratioP2;P2;SDS_P1;SDS_P2;PMS_P1;PMS_P2;Temp;Humidity;BMP_temperature;BMP_pressure;BME280_temperature;BME280_humidity;BME280_pressure;Samples;Min_cycle;Max_cycle;Signal;HPM_P1;HPM_P2
2021/10/06 00:01:58;;;;;;;12.00;5.00;;;;;;;;;;5093184;28;20468;-81
2021/10/06 00:04:24;;;;;;;14.10;4.47;;;;;;;;;;5094468;28;20036;-82
2021/10/06 00:06:50;;;;;;;16.73;5.13;;;;;;;;;;5094065;28;20024;-96
2021/10/06 00:09:17;;;;;;;16.10;5.10;;;;;;;;;;5094320;28;20028;-82
2021/10/06 00:11:43;;;;;;;8.63;5.20;;;;;;;;;;5094418;28;20032;-94
2021/10/06 00:14:11;;;;;;;10.05;5.05;;;;;;;;;;5093636;28;20028;-81
2021/10/06 00:16:38;;;;;;;14.35;4.60;;;;;;;;;;5093068;28;20434;-81
2021/10/06 00:19:04;;;;;;;14.45;5.30;;;;;;;;;;5093521;28;20028;-96
2021/10/06 00:21:31;;;;;;;16.25;5.53;;;;;;;;;;5092904;28;20541;-82
2021/10/06 00:23:57;;;;;;;13.18;4.95;;;;;;;;;;5093055;28;20567;-96
2021/10/06 00:26:24;;;;;;;20.90;5.22;;;;;;;;;;5093332;28;20028;-82
2021/10/06 00:28:50;;;;;;;12.10;5.10;;;;;;;;;;5094336;28;20028;-82
2021/10/06 00:31:17;;;;;;;13.68;5.50;;;;;;;;;;5094369;28;20459;-80
2021/10/06 00:33:43;;;;;;;12.93;5.38;;;;;;;;;;5094087;28;20059;-81
2021/10/06 00:36:10;;;;;;;14.90;6.20;;;;;;;;;;5094157;28;20365;-82
2021/10/06 00:38:38;;;;;;;20.00;6.20;;;;;;;;;;5093957;28;20034;-82
2021/10/06 00:41:04;;;;;;;12.88;5.28;;;;;;;;;;5093704;28;20038;-82
2021/10/06 00:43:30;;;;;;;21.13;6.47;;;;;;;;;;5092827;28;20030;-94
2021/10/06 00:45:56;;;;;;;11.75;4.82;;;;;;;;;;5093700;28;20031;-82
2021/10/06 00:48:23;;;;;;;16.17;6.32;;;;;;;;;;5092552;28;20032;-82
2021/10/06 00:50:49;;;;;;;15.45;5.47;;;;;;;;;;5092475;28;20051;-82
2021/10/06 00:53:16;;;;;;;12.48;5.97;;;;;;;;;;5094057;28;20031;-96
2021/10/06 00:55:42;;;;;;;13.70;6.20;;;;;;;;;;5094618;28;20437;-81
2021/10/06 00:58:09;;;;;;;19.58;6.00;;;;;;;;;;5093864;28;20081;-82
2021/10/06 01:00:35;;;;;;;15.77;6.15;;;;;;;;;;5094216;28;20074;-81
2021/10/06 01:03:02;;;;;;;7.70;4.40;;;;;;;;;;5092391;28;20059;-94
2021/10/06 01:05:30;;;;;;;14.15;5.88;;;;;;;;;;5092555;28;20511;-82
2021/10/06 01:07:56;;;;;;;13.82;6.00;;;;;;;;;;5092885;28;20020;-82
2021/10/06 01:10:22;;;;;;;12.57;4.68;;;;;;;;;;5093852;28;20468;-95
2021/10/06 01:12:49;;;;;;;17.77;6.25;;;;;;;;;;5097169;28;20020;-91
2021/10/06 01:15:15;;;;;;;20.80;5.70;;;;;;;;;;5099047;28;20028;-90
2021/10/06 01:17:42;;;;;;;14.82;6.63;;;;;;;;;;5097554;28;20033;-95
2021/10/06 01:20:11;;;;;;;9.60;4.68;;;;;;;;;;5098337;28;20028;-82
2021/10/06 01:22:37;;;;;;;16.42;5.43;;;;;;;;;;5105989;28;20024;-94
2021/10/06 01:25:05;;;;;;;14.35;6.75;;;;;;;;;;5097437;28;20032;-82
2021/10/06 01:27:31;;;;;;;12.20;5.97;;;;;;;;;;5097439;28;20535;-88
2021/10/06 01:29:57;;;;;;;15.15;5.80;;;;;;;;;;5097764;28;20027;-96
2021/10/06 01:32:23;;;;;;;15.70;5.65;;;;;;;;;;5096429;28;20119;-81
2021/10/06 01:34:57;;;;;;;9.75;5.10;;;;;;;;;;5096010;28;20028;-81
2021/10/06 01:37:23;;;;;;;13.15;5.85;;;;;;;;;;5096056;28;20032;-81
2021/10/06 01:39:50;;;;;;;17.73;5.50;;;;;;;;;;5096780;28;20081;-95
2021/10/06 01:42:16;;;;;;;12.43;5.40;;;;;;;;;;5097594;28;20032;-81
2021/10/06 01:44:42;;;;;;;13.80;5.45;;;;;;;;;;5097087;28;20085;-93
2021/10/06 01:47:09;;;;;;;17.55;5.90;;;;;;;;;;5096036;28;20028;-82
2021/10/06 01:49:35;;;;;;;15.35;5.28;;;;;;;;;;5097049;28;20092;-81
2021/10/06 01:52:01;;;;;;;13.77;6.30;;;;;;;;;;5095775;28;20032;-81
2021/10/06 01:54:28;;;;;;;9.05;5.20;;;;;;;;;;5096058;28;20059;-96
2021/10/06 01:56:54;;;;;;;17.52;5.30;;;;;;;;;;5096348;28;20121;-96
2021/10/06 01:59:20;;;;;;;10.15;4.95;;;;;;;;;;5095831;28;20032;-80
2021/10/06 02:01:47;;;;;;;12.80;5.10;;;;;;;;;;5097179;28;20019;-96
2021/10/06 02:04:13;;;;;;;17.35;5.22;;;;;;;;;;5095711;28;20051;-82
2021/10/06 02:06:39;;;;;;;15.38;6.10;;;;;;;;;;5095358;28;20119;-81
2021/10/06 02:09:06;;;;;;;13.15;6.57;;;;;;;;;;5096714;28;20023;-82
2021/10/06 02:11:32;;;;;;;15.02;5.75;;;;;;;;;;5095499;28;20024;-82
2021/10/06 02:13:59;;;;;;;10.65;5.03;;;;;;;;;;5096617;28;20099;-82
2021/10/06 02:16:25;;;;;;;12.10;5.75;;;;;;;;;;5095709;28;20032;-81
2021/10/06 02:18:52;;;;;;;13.50;5.90;;;;;;;;;;5095868;28;20020;-81
2021/10/06 02:21:18;;;;;;;10.13;5.03;;;;;;;;;;5096217;28;20032;-81
2021/10/06 02:23:44;;;;;;;11.73;6.50;;;;;;;;;;5095993;28;20024;-82
2021/10/06 02:26:11;;;;;;;13.75;6.38;;;;;;;;;;5095033;28;20036;-82
2021/10/06 02:28:37;;;;;;;12.20;7.13;;;;;;;;;;5096892;28;20031;-81
2021/10/06 02:31:04;;;;;;;12.38;5.50;;;;;;;;;;5096513;28;20114;-82
2021/10/06 02:33:30;;;;;;;10.38;5.45;;;;;;;;;;5096212;28;20031;-80
2021/10/06 02:35:56;;;;;;;12.77;6.00;;;;;;;;;;5096203;28;20073;-91
2021/10/06 02:38:22;;;;;;;10.77;4.88;;;;;;;;;;5095140;28;20464;-95
2021/10/06 02:40:48;;;;;;;12.27;5.72;;;;;;;;;;5096072;28;20129;-94
2021/10/06 02:43:14;;;;;;;12.02;5.38;;;;;;;;;;5095131;28;20106;-86
2021/10/06 02:45:41;;;;;;;13.02;5.18;;;;;;;;;;5094566;28;20058;-81
2021/10/06 02:48:07;;;;;;;11.70;5.65;;;;;;;;;;5094826;28;20449;-82
2021/10/06 02:50:33;;;;;;;11.35;5.90;;;;;;;;;;5096725;28;20122;-94
2021/10/06 02:53:00;;;;;;;14.68;5.97;;;;;;;;;;5094898;28;20027;-88
2021/10/06 02:55:26;;;;;;;10.93;4.70;;;;;;;;;;5094553;28;20032;-85
2021/10/06 02:57:52;;;;;;;11.35;5.68;;;;;;;;;;5094689;28;20024;-93
2021/10/06 03:00:18;;;;;;;9.10;5.63;;;;;;;;;;5094697;28;20028;-82
2021/10/06 03:02:44;;;;;;;12.82;5.50;;;;;;;;;;5095667;28;20031;-83
2021/10/06 03:05:11;;;;;;;12.40;5.93;;;;;;;;;;5094452;28;20032;-82
2021/10/06 03:07:37;;;;;;;11.40;5.45;;;;;;;;;;5096138;28;20024;-82
2021/10/06 03:10:05;;;;;;;11.60;5.13;;;;;;;;;;5094342;28;20033;-82
2021/10/06 03:12:31;;;;;;;11.38;5.85;;;;;;;;;;5095919;28;20025;-82
2021/10/06 03:14:57;;;;;;;13.15;5.07;;;;;;;;;;5095878;28;20520;-82
2021/10/06 03:17:24;;;;;;;10.30;6.00;;;;;;;;;;5095603;28;20384;-82
2021/10/06 03:19:50;;;;;;;13.50;5.45;;;;;;;;;;5095609;28;20052;-83
2021/10/06 03:22:17;;;;;;;9.63;5.72;;;;;;;;;;5095784;28;20031;-84
2021/10/06 03:24:43;;;;;;;8.45;5.03;;;;;;;;;;5095758;28;20036;-81
2021/10/06 03:27:10;;;;;;;9.75;4.82;;;;;;;;;;5094049;28;20028;-82
2021/10/06 03:29:36;;;;;;;10.65;6.25;;;;;;;;;;5095219;28;20434;-82
2021/10/06 03:32:02;;;;;;;11.70;4.88;;;;;;;;;;5096217;28;20055;-96
2021/10/06 03:34:29;;;;;;;8.60;4.70;;;;;;;;;;5092871;28;20054;-80
2021/10/06 03:36:55;;;;;;;11.82;5.03;;;;;;;;;;5095405;28;20081;-96
2021/10/06 03:39:21;;;;;;;15.02;5.65;;;;;;;;;;5094104;28;20565;-95
2021/10/06 03:41:47;;;;;;;12.00;5.43;;;;;;;;;;5094471;28;20031;-82
2021/10/06 03:44:14;;;;;;;10.40;4.97;;;;;;;;;;5095010;28;20494;-84
2021/10/06 03:46:40;;;;;;;15.35;5.32;;;;;;;;;;5095435;28;20085;-81
2021/10/06 03:49:07;;;;;;;8.05;4.80;;;;;;;;;;5095247;28;20028;-80
2021/10/06 03:51:33;;;;;;;18.33;5.75;;;;;;;;;;5095265;28;20032;-82
2021/10/06 03:53:59;;;;;;;14.80;4.78;;;;;;;;;;5093520;28;20412;-82
2021/10/06 03:56:26;;;;;;;15.77;5.15;;;;;;;;;;5095390;28;20024;-96
2021/10/06 03:58:52;;;;;;;8.23;5.50;;;;;;;;;;5093919;28;20055;-82
2021/10/06 04:01:19;;;;;;;14.43;6.00;;;;;;;;;;5099872;28;20020;-81
2021/10/06 04:03:45;;;;;;;13.63;5.35;;;;;;;;;;5094791;28;20032;-81
2021/10/06 04:06:12;;;;;;;15.60;5.80;;;;;;;;;;5093302;28;20361;-95
2021/10/06 04:08:38;;;;;;;9.05;5.45;;;;;;;;;;5093832;28;20028;-96
2021/10/06 04:11:04;;;;;;;12.00;5.35;;;;;;;;;;5093658;28;20043;-82
2021/10/06 04:13:31;;;;;;;16.67;4.80;;;;;;;;;;5095040;28;20020;-81
2021/10/06 04:15:57;;;;;;;11.18;5.80;;;;;;;;;;5094675;28;20024;-79
2021/10/06 04:18:23;;;;;;;15.10;5.95;;;;;;;;;;5094870;28;20515;-80
2021/10/06 04:20:49;;;;;;;9.43;5.05;;;;;;;;;;5094529;28;20056;-89
2021/10/06 04:23:15;;;;;;;11.93;5.82;;;;;;;;;;5093202;28;20069;-80
2021/10/06 04:25:41;;;;;;;12.20;5.72;;;;;;;;;;5092891;28;20077;-80
2021/10/06 04:28:07;;;;;;;15.40;5.28;;;;;;;;;;5094376;28;20499;-94
2021/10/06 04:30:34;;;;;;;13.57;5.25;;;;;;;;;;5093259;28;20020;-96
2021/10/06 04:33:00;;;;;;;13.02;5.85;;;;;;;;;;5093783;28;20028;-81
2021/10/06 04:35:26;;;;;;;17.58;5.47;;;;;;;;;;5092617;28;20070;-82
2021/10/06 04:37:53;;;;;;;11.60;5.55;;;;;;;;;;5092895;28;20020;-82
2021/10/06 04:40:19;;;;;;;11.40;5.45;;;;;;;;;;5094260;28;20024;-81
2021/10/06 04:42:46;;;;;;;9.27;5.30;;;;;;;;;;5094413;28;20114;-80
2021/10/06 04:45:12;;;;;;;8.38;5.32;;;;;;;;;;5092511;28;20080;-93
2021/10/06 04:47:39;;;;;;;11.60;5.13;;;;;;;;;;5092730;28;20028;-81
2021/10/06 04:50:05;;;;;;;13.25;5.32;;;;;;;;;;5092406;28;20392;-81
2021/10/06 04:52:32;;;;;;;19.02;5.90;;;;;;;;;;5094369;28;20027;-81
2021/10/06 04:54:58;;;;;;;14.00;5.78;;;;;;;;;;5093573;28;20060;-81
2021/10/06 04:57:26;;;;;;;24.35;6.00;;;;;;;;;;5093815;28;20063;-96
2021/10/06 04:59:52;;;;;;;11.32;6.47;;;;;;;;;;5092470;28;20032;-79
2021/10/06 05:02:18;;;;;;;14.23;5.85;;;;;;;;;;5093910;28;20082;-81
2021/10/06 05:04:45;;;;;;;11.32;5.43;;;;;;;;;;5092530;28;20402;-81
2021/10/06 05:07:11;;;;;;;12.85;6.25;;;;;;;;;;5093785;28;20028;-80
2021/10/06 05:09:37;;;;;;;18.00;6.60;;;;;;;;;;5093168;28;20468;-85
2021/10/06 05:12:03;;;;;;;16.13;6.35;;;;;;;;;;5092458;28;20505;-83
2021/10/06 05:14:30;;;;;;;12.30;6.03;;;;;;;;;;5092305;28;20459;-80
2021/10/06 05:16:56;;;;;;;10.43;6.03;;;;;;;;;;5091148;28;20024;-79
2021/10/06 05:19:22;;;;;;;13.05;5.38;;;;;;;;;;5090198;28;20036;-79
2021/10/06 05:21:49;;;;;;;15.90;6.55;;;;;;;;;;5092621;28;20036;-79
2021/10/06 05:24:15;;;;;;;14.32;5.63;;;;;;;;;;5091860;28;20361;-80
2021/10/06 05:26:41;;;;;;;21.65;5.93;;;;;;;;;;5090706;28;20020;-80
2021/10/06 05:29:07;;;;;;;11.07;5.60;;;;;;;;;;5090758;28;20032;-85
2021/10/06 05:31:33;;;;;;;14.02;5.60;;;;;;;;;;5091776;28;20028;-87
2021/10/06 05:33:59;;;;;;;14.73;5.97;;;;;;;;;;5092042;28;20039;-86
2021/10/06 05:36:25;;;;;;;13.88;5.18;;;;;;;;;;5092015;28;20407;-81
2021/10/06 05:38:52;;;;;;;11.15;5.72;;;;;;;;;;5091927;28;20024;-81
2021/10/06 05:41:18;;;;;;;14.13;6.18;;;;;;;;;;5091678;28;20033;-86
2021/10/06 05:43:44;;;;;;;9.13;5.53;;;;;;;;;;5092021;28;20146;-86
2021/10/06 05:46:10;;;;;;;13.57;5.82;;;;;;;;;;5091890;28;20120;-80
2021/10/06 05:48:36;;;;;;;10.85;5.75;;;;;;;;;;5091808;28;20464;-85
2021/10/06 05:51:02;;;;;;;10.70;5.70;;;;;;;;;;5091830;28;20115;-87
2021/10/06 05:53:28;;;;;;;10.18;5.72;;;;;;;;;;5091404;28;20055;-85
2021/10/06 05:55:55;;;;;;;11.88;6.10;;;;;;;;;;5091919;28;20048;-86
2021/10/06 05:58:23;;;;;;;16.35;5.38;;;;;;;;;;5094431;28;20031;-81
2021/10/06 06:00:49;;;;;;;10.85;5.32;;;;;;;;;;5095482;28;20028;-80
2021/10/06 06:03:15;;;;;;;9.80;5.50;;;;;;;;;;5095350;28;20445;-80
2021/10/06 06:05:41;;;;;;;19.35;5.95;;;;;;;;;;5095361;28;20373;-86
2021/10/06 06:08:08;;;;;;;14.63;5.85;;;;;;;;;;5095508;28;20024;-85
2021/10/06 06:10:34;;;;;;;15.80;6.10;;;;;;;;;;5095390;28;20030;-81
2021/10/06 06:13:01;;;;;;;10.75;5.65;;;;;;;;;;5095119;28;20419;-83
2021/10/06 06:15:27;;;;;;;12.40;6.10;;;;;;;;;;5095250;28;20381;-81
2021/10/06 06:17:53;;;;;;;11.10;5.80;;;;;;;;;;5096320;28;20035;-84
2021/10/06 06:20:23;;;;;;;14.68;6.03;;;;;;;;;;5095189;28;20057;-84
2021/10/06 06:22:51;;;;;;;11.43;6.22;;;;;;;;;;5095103;28;20024;-86
2021/10/06 06:25:17;;;;;;;10.30;5.90;;;;;;;;;;5094819;28;20074;-87
2021/10/06 06:27:43;;;;;;;12.52;5.50;;;;;;;;;;5095046;28;20081;-86
2021/10/06 06:30:09;;;;;;;13.32;6.00;;;;;;;;;;5094932;28;20502;-86
2021/10/06 06:32:35;;;;;;;13.68;5.68;;;;;;;;;;5094550;28;20353;-79
2021/10/06 06:35:02;;;;;;;10.82;5.47;;;;;;;;;;5095065;28;20119;-87
2021/10/06 06:37:28;;;;;;;10.23;6.18;;;;;;;;;;5094946;28;20034;-84
2021/10/06 06:39:54;;;;;;;9.52;5.13;;;;;;;;;;5094587;28;20059;-82
2021/10/06 06:42:20;;;;;;;14.85;5.57;;;;;;;;;;5094741;28;20056;-80
2021/10/06 06:44:46;;;;;;;10.25;5.72;;;;;;;;;;5095199;28;20049;-80
2021/10/06 06:47:12;;;;;;;11.35;5.90;;;;;;;;;;5095848;28;20031;-85
2021/10/06 06:49:38;;;;;;;16.88;5.80;;;;;;;;;;5094497;28;20032;-79
2021/10/06 06:52:05;;;;;;;13.52;5.75;;;;;;;;;;5094431;28;20035;-86
2021/10/06 06:54:31;;;;;;;12.77;5.90;;;;;;;;;;5094156;28;20048;-83
2021/10/06 06:56:57;;;;;;;12.57;5.78;;;;;;;;;;5094323;28;20483;-80
2021/10/06 06:59:23;;;;;;;10.60;5.80;;;;;;;;;;5094153;28;20475;-80
2021/10/06 07:01:57;;;;;;;9.15;5.38;;;;;;;;;;5094781;28;20035;-80
2021/10/06 07:04:24;;;;;;;10.55;5.53;;;;;;;;;;5095333;28;20024;-80
2021/10/06 07:06:53;;;;;;;13.80;5.47;;;;;;;;;;5094103;28;20028;-80
2021/10/06 07:09:23;;;;;;;10.82;5.90;;;;;;;;;;5093857;28;20499;-80
2021/10/06 07:11:50;;;;;;;12.48;5.45;;;;;;;;;;5094043;28;20024;-79
2021/10/06 07:14:16;;;;;;;9.23;5.28;;;;;;;;;;5093919;28;20502;-79
2021/10/06 07:16:42;;;;;;;21.48;5.43;;;;;;;;;;5093999;28;20030;-79
2021/10/06 07:19:08;;;;;;;17.35;5.80;;;;;;;;;;5093978;28;20487;-80
2021/10/06 07:21:34;;;;;;;13.77;6.03;;;;;;;;;;5095206;28;20028;-83
2021/10/06 07:24:00;;;;;;;11.70;5.72;;;;;;;;;;5093737;28;20021;-79
2021/10/06 07:26:26;;;;;;;11.00;6.15;;;;;;;;;;5095236;28;20464;-79
2021/10/06 07:28:52;;;;;;;10.88;6.07;;;;;;;;;;5093440;28;20077;-79
2021/10/06 07:31:19;;;;;;;16.52;6.53;;;;;;;;;;5093588;28;20097;-79
2021/10/06 07:33:47;;;;;;;13.02;7.07;;;;;;;;;;5093655;28;20115;-79
2021/10/06 07:36:13;;;;;;;13.07;6.25;;;;;;;;;;5093549;28;20119;-79
2021/10/06 07:38:39;;;;;;;13.98;6.43;;;;;;;;;;5093611;28;20027;-80
2021/10/06 07:41:06;;;;;;;17.75;7.05;;;;;;;;;;5093560;28;20115;-79
2021/10/06 07:43:32;;;;;;;19.63;7.65;;;;;;;;;;5094604;28;20047;-79
2021/10/06 07:45:58;;;;;;;11.48;6.00;;;;;;;;;;5093389;28;20480;-79
2021/10/06 07:48:24;;;;;;;12.60;6.10;;;;;;;;;;5093374;28;20028;-79
2021/10/06 07:50:50;;;;;;;11.18;6.00;;;;;;;;;;5093000;28;20024;-79
2021/10/06 07:53:16;;;;;;;13.38;7.07;;;;;;;;;;5094011;28;20476;-79
2021/10/06 07:55:42;;;;;;;12.88;7.72;;;;;;;;;;5093203;28;20032;-80
2021/10/06 07:58:09;;;;;;;12.60;6.95;;;;;;;;;;5094862;28;20529;-82
2021/10/06 08:00:35;;;;;;;17.27;7.63;;;;;;;;;;5094917;28;20069;-84
2021/10/06 08:03:01;;;;;;;20.63;6.80;;;;;;;;;;5093763;28;20024;-79
2021/10/06 08:05:28;;;;;;;14.07;6.95;;;;;;;;;;5093834;28;20480;-80
2021/10/06 08:07:54;;;;;;;10.63;6.15;;;;;;;;;;5094315;28;20027;-81
2021/10/06 08:10:20;;;;;;;14.30;6.30;;;;;;;;;;5094260;28;20369;-80
2021/10/06 08:12:46;;;;;;;11.07;6.43;;;;;;;;;;5093617;28;20098;-85
2021/10/06 08:15:12;;;;;;;9.85;6.03;;;;;;;;;;5092770;28;20028;-80
2021/10/06 08:17:38;;;;;;;11.98;6.15;;;;;;;;;;5095561;28;20020;-82
2021/10/06 08:20:05;;;;;;;14.48;6.72;;;;;;;;;;5093716;28;20024;-82
2021/10/06 08:22:31;;;;;;;15.52;6.35;;;;;;;;;;5094180;28;20120;-80
2021/10/06 08:24:57;;;;;;;12.68;6.75;;;;;;;;;;5093945;28;20123;-82
2021/10/06 08:27:23;;;;;;;10.15;5.68;;;;;;;;;;5092712;28;20028;-81
2021/10/06 08:29:49;;;;;;;14.32;7.05;;;;;;;;;;5092655;28;20563;-81
2021/10/06 08:32:15;;;;;;;20.88;7.40;;;;;;;;;;5092696;28;20023;-81
2021/10/06 08:34:42;;;;;;;11.07;6.40;;;;;;;;;;5092719;28;20084;-81
2021/10/06 08:37:08;;;;;;;14.15;6.57;;;;;;;;;;5093749;28;20023;-81
2021/10/06 08:39:34;;;;;;;14.88;6.72;;;;;;;;;;5092104;28;20020;-88
2021/10/06 08:42:00;;;;;;;15.48;6.45;;;;;;;;;;5092760;28;20373;-81
2021/10/06 08:44:32;;;;;;;10.15;6.13;;;;;;;;;;5092325;28;20090;-81
2021/10/06 08:46:58;;;;;;;14.50;7.00;;;;;;;;;;5092508;28;20081;-82
2021/10/06 08:49:24;;;;;;;13.60;7.00;;;;;;;;;;5092232;28;20020;-85
2021/10/06 08:51:50;;;;;;;14.95;6.45;;;;;;;;;;5092951;28;20030;-81
2021/10/06 08:54:17;;;;;;;11.93;7.22;;;;;;;;;;5092016;28;20075;-85
2021/10/06 08:56:44;;;;;;;12.77;7.15;;;;;;;;;;5093705;28;20399;-86
2021/10/06 08:59:10;;;;;;;11.90;6.50;;;;;;;;;;5092168;28;20480;-82
2021/10/06 09:01:42;;;;;;;12.38;5.85;;;;;;;;;;5092335;28;20055;-85
2021/10/06 09:04:08;;;;;;;10.60;5.95;;;;;;;;;;5091827;28;20038;-80
2021/10/06 09:06:35;;;;;;;16.20;7.20;;;;;;;;;;5093797;28;20028;-80
2021/10/06 09:09:12;;;;;;;11.95;7.28;;;;;;;;;;5093494;28;20081;-83
2021/10/06 09:11:38;;;;;;;10.77;5.97;;;;;;;;;;5093512;28;20073;-88
2021/10/06 09:14:06;;;;;;;11.25;7.03;;;;;;;;;;5092039;28;20024;-80
2021/10/06 09:16:32;;;;;;;13.55;6.63;;;;;;;;;;5093586;28;20027;-80
2021/10/06 09:18:58;;;;;;;12.32;6.40;;;;;;;;;;5092038;28;20039;-80
2021/10/06 09:21:25;;;;;;;11.07;7.30;;;;;;;;;;5093160;28;20376;-80
2021/10/06 09:23:51;;;;;;;11.60;6.15;;;;;;;;;;5093588;28;20031;-80
2021/10/06 09:26:17;;;;;;;10.25;6.35;;;;;;;;;;5093104;28;20073;-85
2021/10/06 09:28:50;;;;;;;14.23;7.18;;;;;;;;;;5092852;28;20103;-80
2021/10/06 09:31:20;;;;;;;14.57;7.05;;;;;;;;;;5092905;28;20392;-81
2021/10/06 09:33:51;;;;;;;19.90;7.28;;;;;;;;;;5097900;28;20046;-84
2021/10/06 09:36:25;;;;;;;13.32;6.90;;;;;;;;;;5096366;28;20028;-88
2021/10/06 09:38:56;;;;;;;14.85;6.57;;;;;;;;;;5096203;28;20027;-83
2021/10/06 09:41:26;;;;;;;10.43;6.50;;;;;;;;;;5096055;28;20024;-88
2021/10/06 09:43:56;;;;;;;10.90;6.47;;;;;;;;;;5095888;28;20107;-88
2021/10/06 09:46:22;;;;;;;12.27;6.45;;;;;;;;;;5095881;28;20040;-81
2021/10/06 09:48:48;;;;;;;12.38;6.82;;;;;;;;;;5097354;28;20023;-88
2021/10/06 09:51:14;;;;;;;12.43;7.13;;;;;;;;;;5095555;28;20032;-86
2021/10/06 09:53:50;;;;;;;15.15;5.90;;;;;;;;;;5094774;28;20051;-80
2021/10/06 09:56:18;;;;;;;9.43;5.50;;;;;;;;;;5096417;28;20035;-88
2021/10/06 09:58:44;;;;;;;13.07;6.30;;;;;;;;;;5095190;28;20109;-88
2021/10/06 10:01:11;;;;;;;11.00;6.28;;;;;;;;;;5096456;28;20440;-80
2021/10/06 10:03:38;;;;;;;15.68;6.95;;;;;;;;;;5096541;28;20020;-81
2021/10/06 10:06:05;;;;;;;12.88;5.88;;;;;;;;;;5095725;28;20476;-84
2021/10/06 10:08:32;;;;;;;13.85;6.68;;;;;;;;;;5096728;28;20016;-81
2021/10/06 10:10:58;;;;;;;11.15;6.10;;;;;;;;;;5095194;28;20059;-81
2021/10/06 10:13:24;;;;;;;12.52;7.00;;;;;;;;;;5095082;28;20066;-80
2021/10/06 10:15:51;;;;;;;11.23;6.18;;;;;;;;;;5096491;28;20062;-81
2021/10/06 10:18:19;;;;;;;11.07;5.70;;;;;;;;;;5096221;28;20028;-82
2021/10/06 10:20:47;;;;;;;15.25;6.20;;;;;;;;;;5095125;28;20421;-81
2021/10/06 10:23:17;;;;;;;12.75;6.22;;;;;;;;;;5095387;28;20088;-82
2021/10/06 10:25:47;;;;;;;12.07;6.88;;;;;;;;;;5096483;28;20032;-85
2021/10/06 10:28:13;;;;;;;11.40;5.97;;;;;;;;;;5096322;28;20028;-84
2021/10/06 10:30:40;;;;;;;13.23;6.82;;;;;;;;;;5095242;28;20028;-84
2021/10/06 10:33:10;;;;;;;14.05;6.35;;;;;;;;;;5095182;28;20468;-83
2021/10/06 10:35:43;;;;;;;14.52;6.95;;;;;;;;;;5095238;28;20469;-84
2021/10/06 10:38:17;;;;;;;11.90;5.65;;;;;;;;;;5095180;28;20063;-85
2021/10/06 10:40:46;;;;;;;14.65;6.53;;;;;;;;;;5095229;28;20035;-84
2021/10/06 10:43:12;;;;;;;11.98;6.85;;;;;;;;;;5094135;28;20510;-83
2021/10/06 10:45:38;;;;;;;17.50;6.88;;;;;;;;;;5094623;28;20123;-83
2021/10/06 10:48:09;;;;;;;10.88;6.38;;;;;;;;;;5095280;28;20055;-87
2021/10/06 10:51:01;;;;;;;14.50;6.75;;;;;;;;;;5095845;28;20024;-83
2021/10/06 10:53:46;;;;;;;11.75;6.60;;;;;;;;;;5093924;28;20463;-83
2021/10/06 10:56:12;;;;;;;14.50;6.82;;;;;;;;;;5094610;28;20108;-83
2021/10/06 10:58:43;;;;;;;13.98;7.15;;;;;;;;;;5094566;28;20055;-82
2021/10/06 11:01:29;;;;;;;13.40;7.18;;;;;;;;;;5094699;28;20044;-84
2021/10/06 11:04:15;;;;;;;12.50;6.70;;;;;;;;;;5093255;28;20024;-82
2021/10/06 11:06:43;;;;;;;12.80;6.85;;;;;;;;;;5094249;28;20036;-83
2021/10/06 11:09:28;;;;;;;12.00;6.50;;;;;;;;;;5094070;28;20027;-82
2021/10/06 11:11:54;;;;;;;16.65;6.93;;;;;;;;;;5093527;28;20560;-82
2021/10/06 11:14:23;;;;;;;11.15;6.13;;;;;;;;;;5094073;28;20067;-82
2021/10/06 11:17:07;;;;;;;10.85;6.20;;;;;;;;;;5093879;28;20042;-82
2021/10/06 11:19:45;;;;;;;13.43;7.53;;;;;;;;;;5093885;28;20032;-82
2021/10/06 11:22:24;;;;;;;13.63;6.47;;;;;;;;;;5093899;28;20115;-82
2021/10/06 11:24:50;;;;;;;20.70;7.47;;;;;;;;;;5093873;28;20067;-82
2021/10/06 11:27:17;;;;;;;12.80;6.68;;;;;;;;;;5093666;28;20028;-82
2021/10/06 11:29:43;;;;;;;16.05;6.93;;;;;;;;;;5093750;28;20027;-81
2021/10/06 11:32:10;;;;;;;14.65;6.80;;;;;;;;;;5094946;28;20035;-82
2021/10/06 11:34:50;;;;;;;16.52;7.95;;;;;;;;;;5093634;28;20028;-82
2021/10/06 11:37:16;;;;;;;15.70;7.05;;;;;;;;;;5093163;28;20357;-81
2021/10/06 11:39:43;;;;;;;20.13;8.02;;;;;;;;;;5093423;28;20024;-82
2021/10/06 11:42:09;;;;;;;12.70;6.95;;;;;;;;;;5093531;28;20043;-82
2021/10/06 11:44:35;;;;;;;14.00;7.25;;;;;;;;;;5094837;28;20040;-83
2021/10/06 11:47:05;;;;;;;14.20;6.93;;;;;;;;;;5093642;28;20031;-87
2021/10/06 11:49:32;;;;;;;10.88;6.45;;;;;;;;;;5093510;28;20027;-81
2021/10/06 11:51:58;;;;;;;12.00;6.57;;;;;;;;;;5093467;28;20024;-83
2021/10/06 11:54:25;;;;;;;11.82;7.25;;;;;;;;;;5092309;28;20044;-83
2021/10/06 11:57:01;;;;;;;12.15;7.13;;;;;;;;;;5093173;28;20127;-83
2021/10/06 11:59:31;;;;;;;11.48;7.13;;;;;;;;;;5093208;28;20055;-88
2021/10/06 12:01:59;;;;;;;11.02;6.75;;;;;;;;;;5095014;28;20020;-83
2021/10/06 12:04:26;;;;;;;13.15;7.13;;;;;;;;;;5092746;28;20028;-83
2021/10/06 12:06:59;;;;;;;13.80;6.90;;;;;;;;;;5093170;28;20034;-83
2021/10/06 12:09:25;;;;;;;14.03;6.60;;;;;;;;;;5094398;28;20499;-89
2021/10/06 12:11:52;;;;;;;15.35;6.93;;;;;;;;;;5094303;28;20030;-83
2021/10/06 12:14:23;;;;;;;11.77;7.10;;;;;;;;;;5089735;28;20473;-83
2021/10/06 12:17:06;;;;;;;19.17;7.57;;;;;;;;;;5089685;28;20100;-83
2021/10/06 12:19:33;;;;;;;10.88;6.45;;;;;;;;;;5089568;28;20048;-83
2021/10/06 12:21:59;;;;;;;13.07;6.90;;;;;;;;;;5089540;28;20032;-83
2021/10/06 12:24:26;;;;;;;13.02;7.28;;;;;;;;;;5073836;28;20064;-84
2021/10/06 12:26:53;;;;;;;17.27;8.13;;;;;;;;;;5074168;28;20033;-83
2021/10/06 12:29:23;;;;;;;17.45;7.32;;;;;;;;;;5089655;28;20073;-83
2021/10/06 12:31:50;;;;;;;14.65;7.68;;;;;;;;;;5089098;28;20123;-84
2021/10/06 12:34:21;;;;;;;14.02;8.38;;;;;;;;;;5089314;28;20162;-87
2021/10/06 12:36:54;;;;;;;15.35;8.63;;;;;;;;;;5073915;28;20103;-88
2021/10/06 12:39:23;;;;;;;15.70;9.65;;;;;;;;;;5073659;28;20112;-84
2021/10/06 12:41:54;;;;;;;17.13;8.30;;;;;;;;;;5089233;28;20024;-84
2021/10/06 12:44:35;;;;;;;15.23;7.80;;;;;;;;;;5089318;28;20029;-83
2021/10/06 12:47:01;;;;;;;14.25;8.30;;;;;;;;;;5089319;28;20025;-84
2021/10/06 12:49:28;;;;;;;16.02;7.85;;;;;;;;;;5073438;28;20033;-84
2021/10/06 12:51:55;;;;;;;15.93;8.13;;;;;;;;;;5074247;28;20483;-84
2021/10/06 12:54:23;;;;;;;15.60;8.50;;;;;;;;;;5079676;28;20047;-84
2021/10/06 12:56:52;;;;;;;16.50;7.97;;;;;;;;;;5092799;28;20035;-83
2021/10/06 12:59:19;;;;;;;14.85;7.80;;;;;;;;;;5091208;28;20042;-83
2021/10/06 13:01:47;;;;;;;17.60;8.32;;;;;;;;;;5091519;28;20380;-84
2021/10/06 13:04:14;;;;;;;14.77;8.00;;;;;;;;;;5092042;28;20486;-84
2021/10/06 13:06:41;;;;;;;15.65;8.20;;;;;;;;;;5093270;28;20077;-83
2021/10/06 13:09:07;;;;;;;14.35;8.05;;;;;;;;;;5092260;28;20028;-84
2021/10/06 13:11:36;;;;;;;14.25;8.23;;;;;;;;;;5093403;28;20028;-84
2021/10/06 13:14:03;;;;;;;16.13;8.63;;;;;;;;;;5093358;28;20046;-84
2021/10/06 13:16:29;;;;;;;21.80;9.77;;;;;;;;;;5092109;28;20024;-82
2021/10/06 13:18:55;;;;;;;20.33;9.13;;;;;;;;;;5092186;28;20030;-82
2021/10/06 13:21:23;;;;;;;19.13;8.93;;;;;;;;;;5092016;28;20032;-82
2021/10/06 13:23:49;;;;;;;16.10;7.80;;;;;;;;;;5092142;28;20361;-81
2021/10/06 13:26:16;;;;;;;18.80;7.65;;;;;;;;;;5092007;28;20043;-81
2021/10/06 13:28:43;;;;;;;18.77;8.05;;;;;;;;;;5091653;28;20021;-81
2021/10/06 13:31:10;;;;;;;16.10;8.32;;;;;;;;;;5091825;28;20032;-81
2021/10/06 13:33:36;;;;;;;14.60;8.55;;;;;;;;;;5091977;28;20043;-82
2021/10/06 13:36:08;;;;;;;16.23;8.23;;;;;;;;;;5091908;28;20030;-82
2021/10/06 13:38:34;;;;;;;13.90;7.63;;;;;;;;;;5091974;28;20499;-83
2021/10/06 13:41:00;;;;;;;12.18;7.50;;;;;;;;;;5091920;28;20028;-82
2021/10/06 13:43:26;;;;;;;17.10;7.90;;;;;;;;;;5091830;28;20107;-82
2021/10/06 13:45:52;;;;;;;13.82;8.00;;;;;;;;;;5091780;28;20043;-82
2021/10/06 13:48:18;;;;;;;15.63;7.97;;;;;;;;;;5091853;28;20020;-82
2021/10/06 13:50:45;;;;;;;14.57;7.60;;;;;;;;;;5091847;28;20073;-84
2021/10/06 13:53:11;;;;;;;13.90;7.30;;;;;;;;;;5091383;28;20020;-82
2021/10/06 13:55:37;;;;;;;11.38;7.30;;;;;;;;;;5091727;28;20093;-83
2021/10/06 13:58:03;;;;;;;13.05;7.93;;;;;;;;;;5091335;28;20027;-83
2021/10/06 14:00:31;;;;;;;13.82;7.18;;;;;;;;;;5091708;28;20055;-83
2021/10/06 14:03:00;;;;;;;16.80;7.97;;;;;;;;;;5091636;28;20103;-82
2021/10/06 14:05:27;;;;;;;17.42;7.30;;;;;;;;;;5092750;28;20040;-83
2021/10/06 14:07:53;;;;;;;15.48;7.28;;;;;;;;;;5091635;28;20439;-83
2021/10/06 14:10:20;;;;;;;17.38;7.50;;;;;;;;;;5093136;28;20024;-83
2021/10/06 14:12:46;;;;;;;13.57;8.10;;;;;;;;;;5091710;28;20028;-83
2021/10/06 14:15:12;;;;;;;14.90;8.65;;;;;;;;;;5091545;28;20024;-84
2021/10/06 14:17:38;;;;;;;15.20;9.55;;;;;;;;;;5091626;28;20070;-83
2021/10/06 14:20:05;;;;;;;14.18;8.73;;;;;;;;;;5095161;28;20024;-83
2021/10/06 14:22:34;;;;;;;21.67;11.70;;;;;;;;;;5095221;28;20059;-85
2021/10/06 14:25:00;;;;;;;27.10;10.80;;;;;;;;;;5096347;28;20479;-84
2021/10/06 14:27:27;;;;;;;35.30;15.50;;;;;;;;;;5095759;28;20035;-83
2021/10/06 14:29:54;;;;;;;21.52;12.18;;;;;;;;;;5095072;28;20369;-85
2021/10/06 14:32:20;;;;;;;22.98;12.40;;;;;;;;;;5094920;28;20028;-85